Time;durP1;ratioP1;P1;durP2;ratioP2;P2;SDS_P1;SDS_P2;PMS_P1;PMS_P2;Temp;Humidity;BMP_temperature;BMP_pressure;BME280_temperature;BME280_humidity;BME280_pressure;Samples;Min_cycle;Max_cycle;Signal;HPM_P1;HPM_P2
2022/04/22 00:01:07;;;;;;;9.00;7.90;;;;;;;5.48;100.00;97778.66;5105154;28;20028;-64
2022/04/22 00:03:33;;;;;;;9.60;7.60;;;;;;;5.51;100.00;97776.09;5104740;28;20030;-64
2022/04/22 00:05:58;;;;;;;12.30;7.43;;;;;;;5.41;100.00;97757.59;5101160;28;20031;-64
2022/04/22 00:08:23;;;;;;;11.17;8.30;;;;;;;5.38;100.00;97757.63;5102712;28;20062;-64
2022/04/22 00:13:33;;;;;;;9.50;8.23;;;;;;;5.49;100.00;97760.88;5103558;28;20116;-63
2022/04/22 00:15:58;;;;;;;17.03;9.67;;;;;;;5.62;100.00;97765.78;5101663;28;20454;-64
2022/04/22 00:18:24;;;;;;;11.47;8.23;;;;;;;5.68;100.00;97764.00;5104152;28;20114;-64
2022/04/22 00:20:50;;;;;;;14.67;8.63;;;;;;;5.66;100.00;97765.72;5106386;28;20024;-63
2022/04/22 00:23:15;;;;;;;11.67;8.37;;;;;;;5.54;100.00;97765.88;5106465;28;20121;-64
2022/04/22 00:25:41;;;;;;;10.83;8.10;;;;;;;5.50;100.00;97767.63;5101159;28;20020;-64
2022/04/22 00:28:06;;;;;;;13.00;8.63;;;;;;;5.43;100.00;97758.38;5104426;28;20071;-64
2022/04/22 00:30:32;;;;;;;14.10;9.40;;;;;;;5.54;100.00;97755.72;5104330;28;20031;-64
2022/04/22 00:32:57;;;;;;;15.07;10.10;;;;;;;5.50;100.00;97732.06;5100488;28;20566;-64
2022/04/22 00:35:23;;;;;;;14.00;9.03;;;;;;;5.56;100.00;97746.34;5100588;28;20651;-64
2022/04/22 00:37:49;;;;;;;14.63;9.03;;;;;;;5.59;100.00;97746.34;5086676;28;20027;-64
2022/04/22 00:40:15;;;;;;;12.60;9.60;;;;;;;5.63;100.00;97740.34;5104240;28;20024;-64
2022/04/22 00:42:41;;;;;;;12.33;8.53;;;;;;;5.69;100.00;97741.94;5101519;28;20038;-63
2022/04/22 00:45:07;;;;;;;11.17;8.97;;;;;;;5.71;100.00;97732.59;5100588;28;20511;-65
2022/04/22 00:47:33;;;;;;;14.20;8.63;;;;;;;5.92;100.00;97735.72;5104045;28;20035;-64
2022/04/22 00:49:58;;;;;;;12.47;8.67;;;;;;;5.95;100.00;97738.19;5104208;28;20358;-64
2022/04/22 00:52:25;;;;;;;13.37;9.07;;;;;;;5.96;100.00;97713.59;5101079;28;20696;-64
2022/04/22 00:54:50;;;;;;;11.47;8.67;;;;;;;6.08;100.00;97713.41;5101330;28;20042;-64
2022/04/22 00:57:20;;;;;;;13.33;8.93;;;;;;;6.26;100.00;97725.84;5104244;28;20032;-64
2022/04/22 00:59:46;;;;;;;12.20;8.97;;;;;;;6.33;100.00;97729.97;5103038;28;20085;-64
2022/04/22 01:02:12;;;;;;;15.30;9.53;;;;;;;6.36;100.00;97718.91;5100829;28;20038;-67
2022/04/22 01:10:08;;;;;;;12.73;8.98;;;;;;;6.38;100.00;97720.53;5102401;28;20043;-64
2022/04/22 01:12:33;;;;;;;11.23;7.37;;;;;;;6.35;100.00;97705.34;5099832;28;20048;-64
2022/04/22 01:14:59;;;;;;;9.50;7.53;;;;;;;6.46;100.00;97719.56;5102417;28;20055;-64
2022/04/22 01:17:28;;;;;;;9.10;7.63;;;;;;;6.43;100.00;97713.69;5104517;28;20035;-63
2022/04/22 01:19:54;;;;;;;9.23;7.80;;;;;;;6.48;100.00;97712.75;5101959;28;20381;-65
2022/04/22 01:22:20;;;;;;;10.90;7.97;;;;;;;6.59;100.00;97713.38;5100063;28;20602;-63
2022/04/22 01:24:49;;;;;;;10.30;7.27;;;;;;;6.50;100.00;97698.28;5102588;28;20119;-64
2022/04/22 01:27:16;;;;;;;11.00;6.73;;;;;;;6.50;100.00;97703.38;5104131;28;20027;-64
2022/04/22 01:29:41;;;;;;;10.17;7.37;;;;;;;6.52;100.00;97699.09;5100176;28;20031;-64
2022/04/22 01:32:07;;;;;;;8.87;7.93;;;;;;;6.45;100.00;97695.00;5100703;28;20098;-64
2022/04/22 01:34:33;;;;;;;10.43;7.50;;;;;;;6.36;100.00;97684.13;5103230;28;20032;-63
2022/04/22 01:36:58;;;;;;;9.93;7.47;;;;;;;6.46;100.00;97694.09;5103302;28;20032;-64
2022/04/22 01:39:24;;;;;;;8.57;7.53;;;;;;;6.35;100.00;97676.50;5100475;28;20066;-64
2022/04/22 01:41:49;;;;;;;10.33;7.90;;;;;;;6.38;100.00;97669.63;5100426;28;20049;-67
2022/04/22 01:44:16;;;;;;;9.57;8.20;;;;;;;6.54;100.00;97682.06;5103167;28;20718;-64
2022/04/22 01:46:42;;;;;;;9.87;7.87;;;;;;;6.56;100.00;97677.81;5103003;28;20397;-64
2022/04/22 01:49:07;;;;;;;9.57;7.17;;;;;;;6.58;100.00;97676.06;5100121;28;20024;-64
2022/04/22 01:51:34;;;;;;;8.30;7.07;;;;;;;6.51;100.00;97662.63;5100863;28;20210;-64
2022/04/22 01:53:59;;;;;;;9.30;7.80;;;;;;;6.75;100.00;97676.56;5102733;28;20474;-63
2022/04/22 01:56:25;;;;;;;9.13;6.93;;;;;;;6.75;100.00;97661.28;5102318;28;20069;-64
2022/04/22 01:58:50;;;;;;;9.50;6.93;;;;;;;6.74;100.00;97664.75;5099854;28;20032;-64
2022/04/22 02:01:15;;;;;;;9.27;6.80;;;;;;;6.71;100.00;97657.97;5100194;28;20020;-63
2022/04/22 02:03:41;;;;;;;10.50;7.60;;;;;;;6.68;100.00;97657.19;5103122;28;20032;-64
2022/04/22 02:06:06;;;;;;;9.57;7.17;;;;;;;6.62;100.00;97635.22;5101655;28;20023;-64
2022/04/22 02:08:32;;;;;;;9.40;7.03;;;;;;;6.73;100.00;97647.78;5098625;28;20031;-66
2022/04/22 02:10:57;;;;;;;8.57;7.13;;;;;;;6.68;100.00;97634.28;5101038;28;20047;-62
2022/04/22 02:13:23;;;;;;;10.73;7.57;;;;;;;6.70;100.00;97635.09;5102138;28;20585;-66
2022/04/22 02:15:48;;;;;;;9.30;7.00;;;;;;;6.80;100.00;97651.88;5100848;28;20088;-67
2022/04/22 02:18:14;;;;;;;12.87;8.10;;;;;;;6.86;100.00;97646.66;5075061;28;20419;-67
2022/04/22 02:20:39;;;;;;;12.27;8.10;;;;;;;6.77;100.00;97636.66;5102806;28;20082;-67
2022/04/22 02:23:05;;;;;;;10.27;7.67;;;;;;;6.94;100.00;97662.63;5102626;28;20393;-68
2022/04/22 02:25:30;;;;;;;10.87;7.57;;;;;;;6.90;100.00;97630.44;5101238;28;20485;-67
2022/04/22 02:30:40;;;;;;;9.83;6.90;;;;;;;6.93;100.00;97643.09;5103217;28;20524;-68
2022/04/22 02:33:05;;;;;;;8.40;7.00;;;;;;;6.97;100.00;97648.97;5102459;28;20126;-67
2022/04/22 02:35:31;;;;;;;11.53;7.50;;;;;;;6.84;100.00;97633.94;5101747;28;20034;-67
2022/04/22 02:37:56;;;;;;;8.70;7.20;;;;;;;6.80;100.00;97621.28;5105104;28;20035;-66
2022/04/22 02:45:51;;;;;;;10.37;7.07;;;;;;;6.85;100.00;97625.44;5104074;28;20100;-67
2022/04/22 02:48:17;;;;;;;8.77;7.20;;;;;;;6.92;100.00;97628.69;5106305;28;20027;-68
2022/04/22 02:50:42;;;;;;;9.37;7.63;;;;;;;6.84;100.00;97615.28;5107895;28;20773;-62
2022/04/22 02:53:08;;;;;;;9.10;6.83;;;;;;;6.94;100.00;97631.22;5103992;28;20038;-65
2022/04/22 02:55:37;;;;;;;9.00;8.07;;;;;;;7.11;100.00;97618.94;5102594;28;20074;-69
2022/04/22 02:58:03;;;;;;;8.87;7.43;;;;;;;7.05;100.00;97607.16;5106012;28;20034;-68
2022/04/22 03:00:29;;;;;;;13.10;7.70;;;;;;;7.00;100.00;97598.78;5105785;28;20466;-68
2022/04/22 03:02:54;;;;;;;12.20;7.60;;;;;;;7.05;100.00;97598.69;5103954;28;20027;-71
2022/04/22 03:05:21;;;;;;;9.33;7.37;;;;;;;7.10;100.00;97605.38;5103361;28;20027;-68
2022/04/22 03:07:46;;;;;;;10.73;8.60;;;;;;;7.18;100.00;97600.94;5106473;28;20170;-70
2022/04/22 03:10:12;;;;;;;11.37;7.57;;;;;;;7.12;100.00;97611.28;5106695;28;20039;-67
2022/04/22 03:12:37;;;;;;;14.97;8.40;;;;;;;7.02;100.00;97598.75;5079451;28;20051;-68
2022/04/22 03:15:03;;;;;;;12.93;8.40;;;;;;;7.09;100.00;97611.34;5102838;28;20108;-68
2022/04/22 03:17:29;;;;;;;10.73;7.60;;;;;;;7.06;100.00;97601.22;5104791;28;20032;-69
2022/04/22 03:19:55;;;;;;;10.10;8.33;;;;;;;7.16;100.00;97607.78;5106702;28;20357;-67
2022/04/22 03:22:21;;;;;;;9.37;7.33;;;;;;;7.18;100.00;97613.69;5102926;28;20483;-66
2022/04/22 03:24:46;;;;;;;11.53;8.33;;;;;;;7.22;100.00;97610.19;5102911;28;20040;-68
2022/04/22 03:27:11;;;;;;;10.33;8.43;;;;;;;7.12;100.00;97593.44;5106760;28;20035;-67
2022/04/22 03:29:37;;;;;;;10.13;8.10;;;;;;;7.04;100.00;97581.75;5104859;28;20038;-67
2022/04/22 03:32:04;;;;;;;13.10;8.13;;;;;;;7.06;100.00;97611.41;5101944;28;20027;-72
2022/04/22 03:34:29;;;;;;;8.90;7.20;;;;;;;7.23;100.00;97623.78;5102785;28;20564;-68
2022/04/22 03:36:55;;;;;;;12.10;8.67;;;;;;;7.11;100.00;97614.69;5106681;28;20024;-67
2022/04/22 03:39:20;;;;;;;9.90;8.07;;;;;;;7.01;100.00;97605.56;5105405;28;20068;-68
2022/04/22 03:41:46;;;;;;;11.93;7.60;;;;;;;7.09;100.00;97626.63;5102244;28;20059;-67
2022/04/22 03:44:11;;;;;;;9.03;7.47;;;;;;;7.04;100.00;97617.41;5103746;28;20036;-68
2022/04/22 03:46:37;;;;;;;10.97;8.13;;;;;;;7.14;100.00;97631.63;5105290;28;20027;-68
2022/04/22 03:49:04;;;;;;;10.93;8.20;;;;;;;7.13;100.00;97628.22;5104678;28;20084;-67
2022/04/22 03:51:29;;;;;;;11.77;8.53;;;;;;;7.10;100.00;97627.47;5103102;28;20054;-68
2022/04/22 03:53:55;;;;;;;13.17;7.90;;;;;;;7.19;100.00;97633.22;5104067;28;20134;-68
2022/04/22 03:59:05;;;;;;;9.47;8.10;;;;;;;7.21;100.00;97631.44;5103667;28;20088;-67
2022/04/22 04:01:31;;;;;;;9.40;7.20;;;;;;;7.12;100.00;97610.44;5102550;28;20529;-68
2022/04/22 04:03:57;;;;;;;14.37;8.50;;;;;;;7.29;100.00;97627.06;5105001;28;20027;-68
2022/04/22 04:06:23;;;;;;;10.67;8.20;;;;;;;7.30;100.00;97627.88;5105609;28;20035;-67
2022/04/22 04:15:57;;;;;;;10.73;8.33;;;;;;;7.20;100.00;97608.56;5102872;28;20081;-68
2022/04/22 04:17:02;;;;;;;11.17;8.63;;;;;;;7.33;100.00;97620.16;5105091;28;20504;-67
2022/04/22 04:24:55;;;;;;;26.00;15.80;;;;;;;7.22;100.00;97610.19;5105179;28;20061;-66
2022/04/22 04:27:22;;;;;;;24.67;15.70;;;;;;;7.39;100.00;97629.38;5102988;28;20466;-66
2022/04/22 04:29:47;;;;;;;18.30;12.37;;;;;;;7.41;100.00;97630.19;5101503;28;20028;-68
2022/04/22 04:32:12;;;;;;;15.10;11.17;;;;;;;7.36;100.00;97620.09;5103908;28;20034;-67
2022/04/22 04:34:38;;;;;;;20.33;10.70;;;;;;;7.33;100.00;97628.66;5104497;28;20031;-69
2022/04/22 04:37:06;;;;;;;16.10;10.53;;;;;;;7.42;100.00;97634.41;5101813;28;20036;-66
2022/04/22 04:39:32;;;;;;;13.37;9.83;;;;;;;7.45;100.00;97636.91;5101220;28;20032;-66
2022/04/22 04:41:58;;;;;;;13.53;9.43;;;;;;;7.35;100.00;97620.97;5085748;28;20493;-66
2022/04/22 04:44:25;;;;;;;12.07;10.30;;;;;;;7.42;100.00;97631.88;5104919;28;20031;-67
2022/04/22 04:46:50;;;;;;;14.27;11.27;;;;;;;7.40;100.00;97638.69;5101046;28;20054;-69
2022/04/22 04:49:16;;;;;;;14.03;9.80;;;;;;;7.42;100.00;97629.31;5100631;28;20146;-69
2022/04/22 04:51:41;;;;;;;12.10;9.13;;;;;;;7.49;100.00;97624.03;5104443;28;20492;-67
2022/04/22 04:54:06;;;;;;;12.63;9.40;;;;;;;7.46;100.00;97606.28;5105071;28;20035;-67
2022/04/22 04:56:32;;;;;;;13.10;9.27;;;;;;;7.52;100.00;97608.66;5100619;28;20177;-67
2022/04/22 04:58:57;;;;;;;17.87;10.23;;;;;;;7.62;100.00;97605.03;5100498;28;20460;-66
2022/04/22 05:01:23;;;;;;;18.93;13.27;;;;;;;7.60;100.00;97598.28;5104751;28;20039;-68
2022/04/22 05:03:48;;;;;;;22.07;14.53;;;;;;;7.65;100.00;97619.41;5104379;28;20796;-67
2022/04/22 05:06:13;;;;;;;20.43;13.10;;;;;;;7.47;100.00;97614.75;5100498;28;20545;-69
2022/04/22 05:08:39;;;;;;;12.13;10.73;;;;;;;7.50;100.00;97612.97;5101887;28;20774;-65
2022/04/22 05:11:04;;;;;;;16.87;10.30;;;;;;;7.51;100.00;97636.78;5104671;28;20035;-60
2022/04/22 05:13:30;;;;;;;14.47;9.90;;;;;;;7.42;100.00;97607.22;5102736;28;20632;-68
2022/04/22 05:15:57;;;;;;;17.43;11.20;;;;;;;7.59;100.00;97619.56;5099915;28;20023;-68
2022/04/22 05:18:23;;;;;;;23.03;14.10;;;;;;;7.57;100.00;97621.31;5102035;28;20042;-67
2022/04/22 05:20:49;;;;;;;23.90;14.73;;;;;;;7.42;100.00;97598.72;5103818;28;20470;-69
2022/04/22 05:23:15;;;;;;;23.47;16.17;;;;;;;7.53;100.00;97622.25;5102032;28;20053;-68
2022/04/22 05:25:40;;;;;;;26.17;15.97;;;;;;;7.50;100.00;97635.09;5100016;28;20398;-67
2022/04/22 05:28:06;;;;;;;17.53;13.47;;;;;;;7.57;100.00;97628.97;5102401;28;20099;-68
2022/04/22 05:33:16;;;;;;;18.03;13.80;;;;;;;7.53;100.00;97620.53;5102063;28;20116;-67
2022/04/22 05:35:42;;;;;;;17.93;12.30;;;;;;;7.63;100.00;97636.47;5100025;28;20028;-68
2022/04/22 05:38:09;;;;;;;18.90;12.50;;;;;;;7.58;100.00;97638.28;5103267;28;20040;-68
2022/04/22 05:40:36;;;;;;;18.30;12.57;;;;;;;7.56;100.00;97651.06;5103911;28;20043;-67
2022/04/22 05:43:04;;;;;;;15.97;12.57;;;;;;;7.60;100.00;97654.38;5101041;28;20096;-68
2022/04/22 05:45:30;;;;;;;16.17;10.97;;;;;;;7.64;100.00;97633.03;5099908;28;20081;-68
2022/04/22 05:47:58;;;;;;;16.37;10.83;;;;;;;7.67;100.00;97643.19;5104133;28;20038;-68
2022/04/22 05:50:25;;;;;;;19.03;12.00;;;;;;;7.74;100.00;97644.72;5104005;28;20023;-68
2022/04/22 05:52:52;;;;;;;17.73;12.50;;;;;;;7.79;100.00;97645.44;5099602;28;20119;-69
2022/04/22 05:55:23;;;;;;;19.53;13.47;;;;;;;7.73;100.00;97633.66;5100159;28;20035;-66
2022/04/22 05:57:49;;;;;;;19.13;13.77;;;;;;;7.77;100.00;97626.78;5103949;28;20040;-67
2022/04/22 06:00:18;;;;;;;24.40;15.23;;;;;;;7.90;100.00;97642.63;5102937;28;20438;-67
2022/04/22 06:02:44;;;;;;;19.53;14.13;;;;;;;7.81;100.00;97626.66;5099849;28;20255;-67
2022/04/22 06:05:11;;;;;;;20.37;12.50;;;;;;;7.89;100.00;97643.53;5101225;28;20023;-67
2022/04/22 06:07:37;;;;;;;18.03;11.13;;;;;;;7.87;100.00;97642.69;5079052;28;20465;-66
2022/04/22 06:12:49;;;;;;;15.47;11.27;;;;;;;7.84;100.00;97620.66;5099691;28;20120;-68
2022/04/22 06:15:14;;;;;;;13.10;10.67;;;;;;;7.93;100.00;97637.47;5102016;28;20118;-68
2022/04/22 06:17:40;;;;;;;14.07;11.87;;;;;;;7.85;100.00;97637.63;5103459;28;20069;-67
2022/04/22 06:20:05;;;;;;;16.33;11.57;;;;;;;7.85;100.00;97649.56;5100908;28;20072;-66
2022/04/22 06:22:31;;;;;;;19.40;10.77;;;;;;;7.81;100.00;97646.22;5099959;28;20447;-67
2022/04/22 06:24:57;;;;;;;16.47;11.23;;;;;;;7.67;100.00;97627.88;5102711;28;20046;-68
2022/04/22 06:27:27;;;;;;;15.33;12.00;;;;;;;7.69;100.00;97642.25;5103030;28;20023;-67
2022/04/22 06:29:54;;;;;;;19.27;12.03;;;;;;;7.79;100.00;97648.84;5100346;28;20023;-68
2022/04/22 06:32:21;;;;;;;14.80;11.77;;;;;;;7.70;100.00;97643.09;5099564;28;20115;-67
2022/04/22 06:34:47;;;;;;;16.63;11.03;;;;;;;7.72;100.00;97642.19;5102374;28;20024;-67
2022/04/22 06:37:13;;;;;;;15.27;11.70;;;;;;;7.82;100.00;97658.13;5103063;28;20071;-67
2022/04/22 06:47:54;;;;;;;16.45;12.40;;;;;;;7.97;100.00;97662.03;5101332;28;20042;-67
2022/04/22 06:50:20;;;;;;;17.17;12.97;;;;;;;7.97;100.00;97652.66;5098828;28;20365;-66
2022/04/22 06:52:46;;;;;;;23.03;14.63;;;;;;;8.04;100.00;97651.63;5102003;28;20071;-67
2022/04/22 06:55:13;;;;;;;16.87;12.07;;;;;;;8.03;100.00;97667.81;5102596;28;20108;-67
2022/04/22 06:57:40;;;;;;;16.97;12.57;;;;;;;7.86;100.00;97669.94;5101280;28;20069;-66
2022/04/22 07:00:07;;;;;;;21.30;13.87;;;;;;;7.93;100.00;97666.38;5099017;28;20139;-67
2022/04/22 07:02:32;;;;;;;18.73;12.73;;;;;;;7.96;100.00;97658.63;5102455;28;20030;-66
2022/04/22 07:04:58;;;;;;;17.90;12.90;;;;;;;7.91;100.00;97660.47;5102195;28;20489;-65
2022/04/22 07:07:23;;;;;;;20.03;13.47;;;;;;;7.95;100.00;97656.97;5099616;28;20433;-70
2022/04/22 07:09:49;;;;;;;18.37;13.13;;;;;;;7.92;100.00;97657.03;5099672;28;20470;-69
2022/04/22 07:12:16;;;;;;;21.67;13.03;;;;;;;7.92;100.00;97654.50;5102272;28;20035;-69
2022/04/22 07:14:45;;;;;;;20.33;13.77;;;;;;;8.04;100.00;97654.19;5101895;28;20100;-64
2022/04/22 07:17:12;;;;;;;18.13;13.53;;;;;;;7.98;100.00;97648.38;5100463;28;20114;-67
2022/04/22 07:19:38;;;;;;;20.97;12.83;;;;;;;7.94;100.00;97631.47;5099896;28;20032;-67
2022/04/22 07:22:03;;;;;;;22.30;14.20;;;;;;;8.00;100.00;97652.59;5105909;28;20038;-69
2022/04/22 07:24:29;;;;;;;19.10;14.30;;;;;;;8.07;100.00;97653.25;5084137;28;20100;-69
2022/04/22 07:26:56;;;;;;;18.23;13.47;;;;;;;8.07;100.00;97651.53;5103487;28;20032;-70
2022/04/22 07:29:24;;;;;;;17.23;13.37;;;;;;;8.06;100.00;97637.09;5104136;28;20040;-70
2022/04/22 07:31:50;;;;;;;19.97;13.60;;;;;;;8.10;100.00;97628.53;5106146;28;20397;-69
2022/04/22 07:34:15;;;;;;;21.87;13.67;;;;;;;8.14;100.00;97644.59;5105181;28;20027;-63
2022/04/22 07:36:43;;;;;;;17.37;13.03;;;;;;;8.13;100.00;97631.00;5101980;28;20032;-62
2022/04/22 07:39:09;;;;;;;17.27;13.60;;;;;;;8.20;100.00;97644.41;5103773;28;20126;-61
2022/04/22 07:41:38;;;;;;;20.73;13.30;;;;;;;8.29;100.00;97639.13;5105426;28;20140;-61
2022/04/22 07:46:58;;;;;;;18.13;13.63;;;;;;;8.32;100.00;97628.81;5102463;28;20072;-62
2022/04/22 07:49:24;;;;;;;57.65;21.42;;;;;;;8.39;100.00;97624.41;5104665;28;20036;-61
2022/04/22 07:51:50;;;;;;;28.70;17.10;;;;;;;8.52;100.00;97638.53;5104877;28;20030;-61
2022/04/22 07:54:15;;;;;;;18.13;13.67;;;;;;;8.55;100.00;97633.31;5102876;28;20039;-62
2022/04/22 07:56:44;;;;;;;18.57;13.17;;;;;;;8.55;100.00;97630.75;5101873;28;20264;-62
2022/04/22 07:59:10;;;;;;;18.77;14.10;;;;;;;8.67;100.00;97638.09;5104160;28;20028;-63
2022/04/22 08:01:35;;;;;;;19.40;11.80;;;;;;;8.63;100.00;97639.06;5104427;28;20428;-63
2022/04/22 08:04:01;;;;;;;17.57;13.37;;;;;;;8.72;100.00;97633.69;5101872;28;20764;-63
2022/04/22 08:06:27;;;;;;;20.27;12.87;;;;;;;8.60;100.00;97634.03;5101877;28;20111;-63
2022/04/22 08:08:53;;;;;;;17.83;12.90;;;;;;;8.61;100.00;97622.94;5105741;28;20821;-63
2022/04/22 08:11:20;;;;;;;19.33;12.67;;;;;;;8.75;100.00;97627.66;5105216;28;20039;-63
2022/04/22 08:13:46;;;;;;;16.97;13.30;;;;;;;8.66;100.00;97613.41;5100956;28;20056;-63
2022/04/22 08:16:12;;;;;;;19.27;13.13;;;;;;;8.70;100.00;97625.22;5101488;28;20038;-63
2022/04/22 08:18:38;;;;;;;18.97;12.77;;;;;;;8.76;100.00;97626.78;5105329;28;20569;-63
2022/04/22 08:21:03;;;;;;;20.33;14.20;;;;;;;8.69;100.00;97618.47;5104252;28;20031;-63
2022/04/22 08:23:28;;;;;;;19.37;13.97;;;;;;;8.84;100.00;97630.81;5101072;28;20706;-62
2022/04/22 08:25:55;;;;;;;18.73;13.13;;;;;;;8.88;100.00;97619.59;5102362;28;20062;-63
2022/04/22 08:28:21;;;;;;;20.00;13.75;;;;;;;9.03;100.00;97628.56;5104870;28;20034;-63
2022/04/22 08:30:47;;;;;;;21.33;15.20;;;;;;;9.14;100.00;97624.81;5103050;28;20482;-63
2022/04/22 08:33:12;;;;;;;25.20;13.30;;;;;;;9.11;100.00;97616.41;5100957;28;20027;-63
2022/04/22 08:35:38;;;;;;;19.17;13.63;;;;;;;9.13;100.00;97610.34;5102894;28;20032;-63
2022/04/22 08:38:06;;;;;;;17.40;13.13;;;;;;;9.29;100.00;97617.56;5104315;28;20110;-63
2022/04/22 08:40:37;;;;;;;20.80;14.47;;;;;;;9.27;100.00;97611.66;5103166;28;20032;-63
2022/04/22 08:43:03;;;;;;;20.40;14.20;;;;;;;9.17;100.00;97611.09;5101138;28;20071;-63
2022/04/22 08:45:29;;;;;;;18.20;13.60;;;;;;;9.32;100.00;97612.34;5103042;28;20796;-63
2022/04/22 08:50:44;;;;;;;19.50;13.97;;;;;;;9.49;100.00;97608.41;5101566;28;20138;-64
2022/04/22 08:53:14;;;;;;;22.47;15.60;;;;;;;9.50;100.00;97610.09;5101786;28;20037;-63
2022/04/22 08:55:41;;;;;;;21.43;14.70;;;;;;;9.32;100.00;97597.84;5104526;28;20039;-62
2022/04/22 08:58:08;;;;;;;27.23;18.20;;;;;;;9.34;100.00;97615.69;5104989;28;20034;-63
2022/04/22 09:00:34;;;;;;;23.07;17.47;;;;;;;8.99;100.00;97588.63;5100673;28;20024;-64
2022/04/22 09:03:00;;;;;;;21.13;16.07;;;;;;;9.22;100.00;97611.78;5101041;28;20042;-62
2022/04/22 09:05:27;;;;;;;26.03;16.97;;;;;;;9.10;100.00;97590.00;5104994;28;20027;-64
2022/04/22 09:07:53;;;;;;;25.80;16.77;;;;;;;9.25;100.00;97609.13;5103734;28;20103;-63
2022/04/22 09:10:19;;;;;;;26.63;17.07;;;;;;;8.99;100.00;97601.41;5100848;28;20039;-62
2022/04/22 09:12:56;;;;;;;25.50;17.05;;;;;;;9.04;100.00;97602.94;5100560;28;20040;-63
2022/04/22 09:15:23;;;;;;;23.25;16.02;;;;;;;9.19;100.00;97609.34;5064039;28;20489;-63
2022/04/22 09:17:49;;;;;;;24.67;15.63;;;;;;;9.13;100.00;97618.00;5060553;28;20028;-62
2022/04/22 09:20:15;;;;;;;23.73;16.43;;;;;;;9.17;100.00;97606.81;5060131;28;20086;-62
2022/04/22 09:22:41;;;;;;;22.55;15.48;;;;;;;9.24;100.00;97619.44;5060871;28;20534;-62
2022/04/22 09:25:07;;;;;;;20.17;15.35;;;;;;;9.27;100.00;97614.22;5062150;28;20032;-63
2022/04/22 09:27:33;;;;;;;20.70;15.07;;;;;;;9.21;100.00;97614.41;5059686;28;20538;-63
2022/04/22 09:30:00;;;;;;;22.97;14.30;;;;;;;9.29;100.00;97607.34;5059540;28;20025;-63
2022/04/22 09:32:28;;;;;;;24.63;14.77;;;;;;;9.07;100.00;97607.16;5062255;28;20028;-62
2022/04/22 09:35:08;;;;;;;25.00;16.57;;;;;;;8.97;100.00;97613.41;5062147;28;20028;-62
2022/04/22 09:43:21;;;;;;;25.07;16.83;;;;;;;8.69;100.00;97623.56;5063472;28;20047;-61
2022/04/22 09:45:47;;;;;;;25.97;15.63;;;;;;;8.53;100.00;97622.31;5061948;28;20029;-60
2022/04/22 09:48:15;;;;;;;23.90;15.70;;;;;;;8.35;100.00;97622.81;5058982;28;20037;-61
2022/04/22 09:50:42;;;;;;;21.70;15.43;;;;;;;8.31;100.00;97616.09;5060741;28;20097;-61
2022/04/22 09:53:09;;;;;;;21.60;14.97;;;;;;;8.22;100.00;97623.09;5063171;28;20059;-60
2022/04/22 09:55:56;;;;;;;23.20;15.27;;;;;;;8.15;100.00;97619.00;5061827;28;20082;-61
2022/04/22 09:58:26;;;;;;;22.73;15.83;;;;;;;8.16;100.00;97613.03;5059632;28;20123;-60
2022/04/22 10:01:04;;;;;;;21.53;15.17;;;;;;;8.09;100.00;97608.13;5061964;28;20097;-60
2022/04/22 10:03:31;;;;;;;23.77;16.77;;;;;;;8.10;100.00;97608.09;5062121;28;20509;-58
2022/04/22 10:05:58;;;;;;;29.77;18.27;;;;;;;8.00;100.00;97588.78;5059104;28;20028;-61
2022/04/22 10:08:25;;;;;;;26.63;17.20;;;;;;;8.13;100.00;97613.13;5059213;28;20039;-60
2022/04/22 10:10:52;;;;;;;21.90;16.20;;;;;;;8.24;100.00;97616.22;5063102;28;20029;-60
2022/04/22 10:13:21;;;;;;;25.47;17.17;;;;;;;8.17;100.00;97603.66;5069379;28;20047;-60
2022/04/22 10:15:48;;;;;;;30.13;18.47;;;;;;;8.19;100.00;97610.38;5098892;28;20139;-60
2022/04/22 10:18:15;;;;;;;28.70;19.13;;;;;;;8.05;100.00;97607.38;5100895;28;20039;-61
2022/04/22 10:20:40;;;;;;;27.97;17.53;;;;;;;8.01;100.00;97595.56;5085575;28;20440;-61
2022/04/22 10:23:06;;;;;;;26.03;17.77;;;;;;;7.99;100.00;97599.84;5102766;28;20036;-60
2022/04/22 10:25:33;;;;;;;28.93;19.50;;;;;;;8.01;100.00;97621.09;5098831;28;20089;-60
2022/04/22 10:28:03;;;;;;;26.37;19.90;;;;;;;7.98;100.00;97605.84;5100528;28;20031;-61
2022/04/22 10:30:29;;;;;;;29.23;20.57;;;;;;;8.06;100.00;97623.53;5103659;28;20500;-60
2022/04/22 10:32:56;;;;;;;30.97;20.93;;;;;;;8.03;100.00;97621.88;5102203;28;20032;-60
2022/04/22 10:35:25;;;;;;;32.43;19.83;;;;;;;7.99;100.00;97620.28;5098759;28;20050;-61
2022/04/22 10:37:52;;;;;;;30.50;20.93;;;;;;;7.99;100.00;97627.09;5101166;28;20136;-64
2022/04/22 10:40:20;;;;;;;29.40;20.13;;;;;;;7.81;100.00;97613.06;5103141;28;20034;-62
2022/04/22 10:42:46;;;;;;;28.73;19.37;;;;;;;7.87;100.00;97607.81;5101127;28;20046;-62
2022/04/22 10:47:56;;;;;;;31.80;19.37;;;;;;;8.07;100.00;97613.25;5102234;28;20100;-62
2022/04/22 10:50:30;;;;;;;30.83;21.77;;;;;;;8.01;100.00;97617.69;5102720;28;20031;-61
2022/04/22 10:53:08;;;;;;;30.38;20.70;;;;;;;8.05;100.00;97614.19;5099496;28;20409;-60
2022/04/22 10:55:41;;;;;;;34.23;20.47;;;;;;;8.12;100.00;97608.03;5100106;28;20047;-62
2022/04/22 10:58:12;;;;;;;34.77;21.77;;;;;;;8.19;100.00;97612.94;5103553;28;20154;-62
2022/04/22 11:00:41;;;;;;;33.07;22.60;;;;;;;8.12;100.00;97597.81;5102107;28;20182;-61
2022/04/22 11:03:21;;;;;;;33.40;21.47;;;;;;;8.47;100.00;97608.00;5099691;28;20059;-60
2022/04/22 11:05:49;;;;;;;28.13;19.90;;;;;;;8.57;100.00;97595.81;5100547;28;20114;-60
2022/04/22 11:08:32;;;;;;;33.10;20.37;;;;;;;8.69;100.00;97603.13;5103223;28;20042;-60
2022/04/22 11:11:02;;;;;;;33.50;21.17;;;;;;;8.66;100.00;97611.69;5101445;28;20027;-57
2022/04/22 11:13:35;;;;;;;29.37;21.00;;;;;;;8.68;100.00;97611.66;5074925;28;20094;-60
2022/04/22 11:16:30;;;;;;;33.20;21.30;;;;;;;8.77;100.00;97613.97;5101420;28;20529;-60
2022/04/22 11:19:24;;;;;;;33.47;19.88;;;;;;;8.80;100.00;97601.09;5102662;28;20028;-61
2022/04/22 11:21:57;;;;;;;28.47;18.77;;;;;;;8.88;100.00;97606.00;5097423;28;20035;-61
2022/04/22 11:24:31;;;;;;;30.67;20.00;;;;;;;8.68;100.00;97609.97;5100285;28;20473;-64
2022/04/22 11:27:11;;;;;;;31.50;19.50;;;;;;;8.78;100.00;97605.44;5100236;28;20038;-64
2022/04/22 11:29:38;;;;;;;31.97;20.87;;;;;;;8.68;100.00;97609.13;5099454;28;20028;-63
2022/04/22 11:32:22;;;;;;;48.20;24.87;;;;;;;8.64;100.00;97615.19;5097389;28;20024;-63
2022/04/22 11:34:54;;;;;;;30.20;19.20;;;;;;;8.54;100.00;97608.66;5101047;28;20024;-63
2022/04/22 11:37:22;;;;;;;32.23;21.30;;;;;;;8.56;100.00;97610.31;5104279;28;20131;-63
2022/04/22 11:39:51;;;;;;;33.67;21.47;;;;;;;8.40;100.00;97614.13;5102346;28;20110;-64
2022/04/22 11:42:17;;;;;;;28.33;19.57;;;;;;;8.36;100.00;97619.38;5101540;28;20019;-61
2022/04/22 11:45:04;;;;;;;31.43;20.87;;;;;;;8.15;100.00;97613.91;5105585;28;20108;-60
2022/04/22 11:47:31;;;;;;;31.27;20.87;;;;;;;8.10;100.00;97607.25;5104023;28;20039;-60
2022/04/22 11:49:57;;;;;;;31.53;20.20;;;;;;;8.05;100.00;97602.25;5100514;28;20036;-62
2022/04/22 11:52:23;;;;;;;33.87;20.50;;;;;;;8.28;100.00;97609.31;5102922;28;20062;-60
2022/04/22 11:54:51;;;;;;;32.80;21.53;;;;;;;8.35;100.00;97604.94;5104766;28;20039;-61
2022/04/22 11:57:17;;;;;;;34.30;22.50;;;;;;;8.31;100.00;97604.19;5103975;28;20670;-61
2022/04/22 12:05:31;;;;;;;37.03;23.40;;;;;;;8.41;100.00;97597.94;5100900;28;20039;-61
2022/04/22 12:05:33;;;;;;;35.77;21.83;;;;;;;8.54;100.00;97612.03;5103755;28;20046;-61
2022/04/22 12:08:07;;;;;;;36.53;21.73;;;;;;;8.57;100.00;97611.94;5101744;28;20027;-61
2022/04/22 12:10:34;;;;;;;35.27;21.43;;;;;;;8.47;100.00;97596.94;5101423;28;20265;-61
2022/04/22 12:13:04;;;;;;;34.47;22.40;;;;;;;8.49;100.00;97606.22;5103604;28;20046;-61
2022/04/22 12:15:30;;;;;;;33.13;21.17;;;;;;;8.52;100.00;97601.06;5104946;28;20551;-62
2022/04/22 12:17:59;;;;;;;32.20;20.40;;;;;;;8.57;100.00;97606.03;5101515;28;20045;-61
2022/04/22 12:20:28;;;;;;;28.70;20.33;;;;;;;8.59;100.00;97605.09;5102027;28;20039;-62
2022/04/22 12:22:55;;;;;;;34.10;22.07;;;;;;;8.50;100.00;97578.97;5105001;28;20142;-62